createdAt,value
2018-01-11T00:00:17.281Z,69.20
2018-01-11T00:01:19.147Z,69.40
2018-01-11T00:02:20.229Z,69.20
2018-01-11T00:03:21.518Z,69.40
2018-01-11T00:04:22.608Z,69.40
2018-01-11T00:05:23.787Z,69.40
2018-01-11T00:06:24.870Z,69.40
2018-01-11T00:07:25.957Z,69.50
2018-01-11T00:08:27.027Z,69.50
2018-01-11T00:09:28.106Z,69.70
2018-01-11T00:10:29.907Z,69.80
2018-01-11T00:11:30.978Z,69.80
2018-01-11T00:12:32.450Z,69.80
2018-01-11T00:13:33.533Z,69.60
2018-01-11T00:14:34.811Z,69.60
2018-01-11T00:15:35.890Z,69.60
2018-01-11T00:16:36.955Z,69.60
2018-01-11T00:17:38.047Z,69.60
2018-01-11T00:18:39.134Z,69.60
2018-01-11T00:19:40.220Z,69.70
2018-01-11T00:20:41.368Z,69.60
2018-01-11T00:21:42.448Z,69.70
2018-01-11T00:22:43.647Z,69.60
2018-01-11T00:23:44.883Z,69.70
2018-01-11T00:24:46.702Z,69.70
2018-01-11T00:25:47.797Z,69.70
2018-01-11T00:26:48.868Z,69.70
2018-01-11T00:27:50.011Z,69.80
2018-01-11T00:28:51.094Z,69.80
2018-01-11T00:29:52.193Z,69.80
2018-01-11T00:30:53.260Z,69.80
2018-01-11T00:31:54.343Z,70.00
2018-01-11T00:32:55.430Z,70.00
2018-01-11T00:33:58.468Z,70.00
2018-01-11T00:35:00.298Z,70.00
2018-01-11T00:36:01.767Z,70.10
2018-01-11T00:37:03.614Z,70.00
2018-01-11T00:38:05.455Z,69.90
2018-01-11T00:39:06.644Z,69.90
2018-01-11T00:40:07.739Z,70.00
2018-01-11T00:41:08.836Z,69.80
2018-01-11T00:42:10.386Z,70.00
2018-01-11T00:43:11.495Z,70.00
2018-01-11T00:44:12.636Z,70.00
2018-01-11T00:45:13.728Z,69.80
2018-01-11T00:46:14.815Z,70.00
2018-01-11T00:47:15.888Z,70.20
2018-01-11T00:48:20.332Z,70.10
2018-01-11T00:49:21.419Z,70.10
2018-01-11T00:50:22.528Z,70.30
2018-01-11T00:51:23.690Z,70.10
2018-01-11T00:52:25.128Z,70.00
2018-01-11T00:53:26.238Z,70.00
2018-01-11T00:54:27.555Z,70.00
2018-01-11T00:55:28.644Z,70.00
2018-01-11T00:56:30.633Z,70.10
2018-01-11T00:57:32.079Z,70.10
2018-01-11T00:58:33.507Z,70.10
2018-01-11T00:59:34.615Z,70.00
2018-01-11T01:00:35.706Z,69.90
2018-01-11T01:01:37.598Z,69.80
2018-01-11T01:02:38.706Z,69.80
2018-01-11T01:03:40.548Z,70.00
2018-01-11T01:04:41.632Z,70.00
2018-01-11T01:05:42.734Z,70.00
2018-01-11T01:06:44.556Z,70.20
2018-01-11T01:07:45.651Z,70.00
2018-01-11T01:08:46.746Z,70.10
2018-01-11T01:09:47.842Z,70.00
2018-01-11T01:10:48.950Z,69.80
2018-01-11T01:11:50.039Z,69.80
2018-01-11T01:12:51.127Z,69.70
2018-01-11T01:13:52.218Z,69.70
2018-01-11T01:14:53.318Z,69.70
2018-01-11T01:15:54.401Z,69.70
2018-01-11T01:16:55.552Z,69.70
2018-01-11T01:17:56.683Z,69.80
2018-01-11T01:18:57.779Z,69.70
2018-01-11T01:19:58.867Z,69.60
2018-01-11T01:20:59.968Z,70.40
2018-01-11T01:22:01.074Z,69.80
2018-01-11T01:23:02.173Z,69.80
2018-01-11T01:24:03.267Z,70.00
2018-01-11T01:25:04.364Z,70.20
2018-01-11T01:26:05.463Z,70.10
2018-01-11T01:27:06.555Z,70.20
2018-01-11T01:28:07.667Z,70.40
2018-01-11T01:29:08.793Z,70.50
2018-01-11T01:30:09.927Z,70.30
2018-01-11T01:31:11.760Z,70.20
2018-01-11T01:32:12.850Z,70.20
2018-01-11T01:33:13.931Z,70.20
2018-01-11T01:34:15.032Z,70.20
2018-01-11T01:35:16.134Z,69.70
2018-01-11T01:36:17.216Z,70.30
2018-01-11T01:37:18.312Z,70.20
2018-01-11T01:38:19.402Z,70.40
2018-01-11T01:39:20.506Z,70.30
2018-01-11T01:40:21.601Z,70.30
2018-01-11T01:41:22.701Z,70.30
2018-01-11T01:42:24.545Z,70.50
2018-01-11T01:43:26.094Z,70.50
2018-01-11T01:44:27.940Z,70.40
2018-01-11T01:45:29.766Z,70.40
2018-01-11T01:46:31.616Z,71.20
2018-01-11T01:47:32.717Z,70.40
2018-01-11T01:48:41.996Z,70.30
2018-01-11T01:49:43.834Z,70.40
2018-01-11T01:50:44.918Z,70.40
2018-01-11T01:51:46.004Z,70.30
2018-01-11T01:52:47.094Z,70.30
2018-01-11T01:53:48.178Z,70.30
2018-01-11T01:54:49.300Z,70.30
2018-01-11T01:55:50.376Z,70.50
2018-01-11T01:56:51.463Z,70.60
2018-01-11T01:57:52.547Z,70.70
2018-01-11T01:58:53.639Z,70.70
2018-01-11T01:59:55.488Z,70.60
2018-01-11T02:00:56.578Z,70.60
2018-01-11T02:01:57.664Z,70.60
2018-01-11T02:02:58.775Z,70.70
2018-01-11T02:03:59.884Z,71.00
2018-01-11T02:05:00.972Z,70.50
2018-01-11T02:06:02.075Z,71.00
2018-01-11T02:07:03.160Z,71.80
2018-01-11T02:08:04.243Z,71.00
2018-01-11T02:09:05.333Z,71.00
2018-01-11T02:10:06.431Z,71.00
2018-01-11T02:11:07.535Z,71.00
2018-01-11T02:12:08.637Z,70.90
2018-01-11T02:13:09.731Z,70.80
2018-01-11T02:14:10.856Z,70.80
2018-01-11T02:15:11.989Z,70.90
2018-01-11T02:16:13.137Z,70.90
2018-01-11T02:17:14.251Z,70.90
2018-01-11T02:18:16.066Z,70.90
2018-01-11T02:19:17.160Z,70.90
2018-01-11T02:20:19.003Z,70.90
2018-01-11T02:21:20.087Z,70.90
2018-01-11T02:22:21.183Z,70.80
2018-01-11T02:23:23.028Z,70.80
2018-01-11T02:24:24.107Z,70.80
2018-01-11T02:25:25.212Z,70.80
2018-01-11T02:26:27.035Z,70.80
2018-01-11T02:27:28.127Z,70.80
2018-01-11T02:28:29.208Z,71.00
2018-01-11T02:29:30.320Z,71.10
2018-01-11T02:30:31.424Z,71.00
2018-01-11T02:31:32.499Z,70.90
2018-01-11T02:32:33.596Z,70.80
2018-01-11T02:33:34.695Z,70.90
2018-01-11T02:34:35.791Z,70.90
2018-01-11T02:35:36.875Z,70.90
2018-01-11T02:36:38.011Z,70.90
2018-01-11T02:37:39.101Z,70.90
2018-01-11T02:38:40.209Z,70.90
2018-01-11T02:39:42.052Z,71.20
2018-01-11T02:40:43.897Z,71.50
2018-01-11T02:41:45.743Z,71.40
2018-01-11T02:42:46.832Z,71.40
2018-01-11T02:43:48.499Z,71.40
2018-01-11T02:45:56.459Z,71.50
2018-01-11T02:46:57.532Z,71.50
2018-01-11T02:47:58.618Z,71.50
2018-01-11T02:48:59.747Z,71.30
2018-01-11T02:50:00.831Z,71.10
2018-01-11T02:51:01.930Z,71.40
2018-01-11T02:52:03.034Z,71.50
2018-01-11T02:53:04.873Z,71.60
2018-01-11T02:54:05.967Z,71.60
2018-01-11T02:55:07.044Z,71.80
2018-01-11T02:56:08.884Z,71.60
2018-01-11T02:57:10.719Z,72.00
2018-01-11T02:58:11.796Z,71.80
2018-01-11T02:59:12.907Z,71.90
2018-01-11T03:00:14.003Z,72.00
2018-01-11T03:01:15.147Z,72.00
2018-01-11T03:02:16.268Z,72.00
2018-01-11T03:03:17.396Z,72.00
2018-01-11T03:04:18.503Z,71.90
2018-01-11T03:05:19.583Z,71.90
2018-01-11T03:06:20.687Z,71.80
2018-01-11T03:07:21.799Z,71.80
2018-01-11T03:08:22.897Z,71.90
2018-01-11T03:09:24.722Z,71.90
2018-01-11T03:10:25.811Z,71.90
2018-01-11T03:11:26.919Z,71.90
2018-01-11T03:12:28.748Z,71.10
2018-01-11T03:13:29.850Z,71.10
2018-01-11T03:14:30.956Z,71.20
2018-01-11T03:15:32.072Z,71.20
2018-01-11T03:16:33.167Z,71.30
2018-01-11T03:17:34.254Z,71.30
2018-01-11T03:18:35.334Z,71.60
2018-01-11T03:19:36.435Z,71.80
2018-01-11T03:20:37.543Z,71.60
2018-01-11T03:21:38.660Z,71.60
2018-01-11T03:22:40.487Z,71.80
2018-01-11T03:23:41.567Z,71.70
2018-01-11T03:24:42.661Z,71.80
2018-01-11T03:25:44.490Z,71.90
2018-01-11T03:26:45.579Z,72.00
2018-01-11T03:27:46.660Z,72.10
2018-01-11T03:28:47.764Z,72.10
2018-01-11T03:29:48.856Z,72.00
2018-01-11T03:30:49.944Z,72.00
2018-01-11T03:31:51.060Z,71.90
2018-01-11T03:32:52.139Z,71.60
2018-01-11T03:33:53.219Z,71.50
2018-01-11T03:34:54.320Z,71.50
2018-01-11T03:35:55.403Z,71.60
2018-01-11T03:36:56.491Z,71.80
2018-01-11T03:37:57.624Z,71.80
2018-01-11T03:38:59.451Z,71.50
2018-01-11T03:40:00.535Z,71.50
2018-01-11T03:41:02.519Z,71.20
2018-01-11T03:42:03.622Z,71.20
2018-01-11T03:43:04.723Z,71.30
2018-01-11T03:44:05.804Z,71.40
2018-01-11T03:45:06.917Z,71.30
2018-01-11T03:46:07.995Z,71.30
2018-01-11T03:47:09.096Z,71.10
2018-01-11T03:48:10.178Z,71.40
2018-01-11T03:49:11.296Z,71.50
2018-01-11T03:50:12.380Z,71.90
2018-01-11T03:51:13.467Z,72.00
2018-01-11T03:52:14.562Z,72.90
2018-01-11T03:53:15.651Z,72.10
2018-01-11T03:54:17.466Z,72.00
2018-01-11T03:55:18.561Z,72.00
2018-01-11T03:56:19.635Z,72.10
2018-01-11T03:57:20.740Z,71.90
2018-01-11T03:58:21.864Z,71.80
2018-01-11T03:59:23.699Z,71.60
2018-01-11T04:00:24.779Z,71.60
2018-01-11T04:01:25.863Z,71.70
2018-01-11T04:02:27.711Z,72.00
2018-01-11T04:03:28.791Z,71.90
2018-01-11T04:04:29.891Z,72.00
2018-01-11T04:05:30.988Z,72.00
2018-01-11T04:06:32.806Z,71.90
2018-01-11T04:07:33.894Z,72.00
2018-01-11T04:08:35.015Z,71.90
2018-01-11T04:09:36.089Z,72.00
2018-01-11T04:10:37.204Z,72.00
2018-01-11T04:11:38.267Z,72.00
2018-01-11T04:12:39.356Z,72.00
2018-01-11T04:13:40.437Z,71.90
2018-01-11T04:14:41.516Z,71.90
2018-01-11T04:15:42.664Z,71.80
2018-01-11T04:16:43.767Z,72.00
2018-01-11T04:17:44.866Z,71.80
2018-01-11T04:18:45.981Z,71.70
2018-01-11T04:19:47.075Z,71.70
2018-01-11T04:20:48.166Z,71.60
2018-01-11T04:21:49.252Z,71.50
2018-01-11T04:22:50.344Z,71.50
2018-01-11T04:23:51.447Z,71.50
2018-01-11T04:24:52.552Z,71.40
2018-01-11T04:25:53.628Z,71.40
2018-01-11T04:26:54.747Z,71.40
2018-01-11T04:27:55.869Z,71.30
2018-01-11T04:28:56.984Z,71.10
2018-01-11T04:29:58.050Z,71.30
2018-01-11T04:30:59.147Z,71.30
2018-01-11T04:32:00.232Z,71.30
2018-01-11T04:33:01.319Z,71.20
2018-01-11T04:34:02.395Z,71.20
2018-01-11T04:35:03.504Z,71.40
2018-01-11T04:36:04.598Z,71.30
2018-01-11T04:37:05.684Z,71.20
2018-01-11T04:38:07.571Z,71.10
2018-01-11T04:39:08.659Z,71.00
2018-01-11T04:40:09.751Z,71.20
2018-01-11T04:41:10.822Z,71.20
2018-01-11T04:42:11.915Z,71.00
2018-01-11T04:43:12.996Z,71.20
2018-01-11T04:44:14.081Z,71.10
2018-01-11T04:45:15.163Z,71.20
2018-01-11T04:46:16.266Z,71.30
2018-01-11T04:47:17.403Z,71.40
2018-01-11T04:48:18.504Z,71.50
2018-01-11T04:49:19.591Z,72.60
2018-01-11T04:50:20.692Z,72.00
2018-01-11T04:51:21.804Z,72.50
2018-01-11T04:52:22.891Z,72.80
2018-01-11T04:53:23.988Z,72.60
2018-01-11T04:54:25.078Z,72.80
2018-01-11T04:55:26.155Z,72.20
2018-01-11T04:56:27.247Z,72.00
2018-01-11T04:57:28.332Z,71.80
2018-01-11T04:58:29.426Z,71.80
2018-01-11T04:59:31.263Z,72.20
2018-01-11T05:00:38.539Z,72.20
2018-01-11T05:01:40.386Z,73.30
2018-01-11T05:02:41.468Z,73.20
2018-01-11T05:03:42.563Z,73.10
2018-01-11T05:04:43.666Z,72.50
2018-01-11T05:05:44.751Z,72.00
2018-01-11T05:06:45.851Z,71.80
2018-01-11T05:07:47.701Z,71.90
2018-01-11T05:08:48.824Z,71.90
2018-01-11T05:09:50.002Z,72.20
2018-01-11T05:10:51.159Z,72.60
2018-01-11T05:11:52.265Z,72.50
2018-01-11T05:12:53.351Z,72.40
2018-01-11T05:13:54.447Z,72.70
2018-01-11T05:14:55.537Z,72.50
2018-01-11T05:15:57.358Z,72.10
2018-01-11T05:16:58.455Z,72.10
2018-01-11T05:17:59.539Z,71.80
2018-01-11T05:19:01.776Z,71.90
2018-01-11T05:20:02.880Z,71.90
2018-01-11T05:21:04.012Z,71.90
2018-01-11T05:22:05.105Z,71.60
2018-01-11T05:23:06.201Z,71.60
2018-01-11T05:24:07.328Z,72.50
2018-01-11T05:25:08.436Z,72.60
2018-01-11T05:26:09.529Z,72.20
2018-01-11T05:27:10.618Z,73.30
2018-01-11T05:28:11.768Z,72.20
2018-01-11T05:29:12.859Z,72.00
2018-01-11T05:30:13.935Z,72.00
2018-01-11T05:31:15.076Z,71.90
2018-01-11T05:32:16.155Z,71.20
2018-01-11T05:33:17.288Z,71.30
2018-01-11T05:34:18.372Z,71.50
2018-01-11T05:35:19.486Z,71.70
2018-01-11T05:36:20.583Z,71.90
2018-01-11T05:37:21.676Z,72.00
2018-01-11T05:38:22.799Z,71.80
2018-01-11T05:39:23.896Z,71.60
2018-01-11T05:40:24.978Z,71.80
2018-01-11T05:41:26.076Z,71.80
2018-01-11T05:42:27.155Z,71.50
2018-01-11T05:43:28.262Z,71.80
2018-01-11T05:44:29.355Z,72.10
2018-01-11T05:45:30.434Z,71.80
2018-01-11T05:46:31.511Z,71.50
2018-01-11T05:47:33.369Z,72.10
2018-01-11T05:48:34.468Z,72.00
2018-01-11T05:49:36.308Z,71.90
2018-01-11T05:50:37.479Z,71.90
2018-01-11T05:51:38.522Z,71.90
2018-01-11T05:52:39.616Z,72.00
2018-01-11T05:53:40.726Z,72.10
2018-01-11T05:54:41.820Z,72.10
2018-01-11T05:55:42.963Z,71.70
2018-01-11T05:56:44.052Z,71.70
2018-01-11T05:57:45.138Z,72.10
2018-01-11T05:58:46.247Z,72.10
2018-01-11T05:59:47.327Z,72.50
2018-01-11T06:00:48.468Z,72.70
2018-01-11T06:01:50.315Z,73.30
2018-01-11T06:02:51.456Z,73.30
2018-01-11T06:03:53.298Z,73.70
2018-01-11T06:04:54.386Z,73.30
2018-01-11T06:05:55.487Z,73.20
2018-01-11T06:06:56.589Z,73.50
2018-01-11T06:07:57.675Z,73.50
2018-01-11T06:08:58.759Z,73.30
2018-01-11T06:09:59.841Z,73.40
2018-01-11T06:11:01.048Z,73.70
2018-01-11T06:12:02.876Z,73.60
2018-01-11T06:13:03.957Z,73.50
2018-01-11T06:14:05.057Z,73.70
2018-01-11T06:15:06.280Z,73.30
2018-01-11T06:16:07.420Z,73.00
2018-01-11T06:17:08.519Z,72.80
2018-01-11T06:18:09.623Z,72.70
2018-01-11T06:19:10.803Z,72.50
2018-01-11T06:20:11.883Z,72.30
2018-01-11T06:21:12.974Z,72.50
2018-01-11T06:22:14.055Z,72.90
2018-01-11T06:23:15.135Z,73.20
2018-01-11T06:24:16.223Z,73.40
2018-01-11T06:25:17.302Z,73.60
2018-01-11T06:26:18.412Z,73.70
2018-01-11T06:27:19.527Z,73.90
2018-01-11T06:28:20.622Z,73.70
2018-01-11T06:29:22.455Z,73.40
2018-01-11T06:30:25.691Z,73.20
2018-01-11T06:31:26.836Z,73.20
2018-01-11T06:32:27.939Z,73.30
2018-01-11T06:33:29.025Z,73.60
2018-01-11T06:34:30.171Z,73.30
2018-01-11T06:35:31.247Z,73.10
2018-01-11T06:36:32.408Z,73.10
2018-01-11T06:37:33.503Z,73.30
2018-01-11T06:38:34.622Z,73.10
2018-01-11T06:39:36.459Z,73.60
2018-01-11T06:40:37.577Z,73.50
2018-01-11T06:41:38.702Z,73.60
2018-01-11T06:42:39.808Z,73.60
2018-01-11T06:43:40.916Z,73.70
2018-01-11T06:44:42.029Z,73.70
2018-01-11T06:45:43.128Z,73.70
2018-01-11T06:46:44.219Z,73.90
2018-01-11T06:47:45.299Z,74.00
2018-01-11T06:48:46.451Z,74.00
2018-01-11T06:49:48.298Z,74.70
2018-01-11T06:50:49.387Z,73.90
2018-01-11T06:51:50.556Z,73.90
2018-01-11T06:52:51.651Z,74.10
2018-01-11T06:53:52.747Z,74.00
2018-01-11T06:54:54.042Z,74.00
2018-01-11T06:55:55.175Z,73.90
2018-01-11T06:56:56.276Z,73.80
2018-01-11T06:57:57.361Z,73.60
2018-01-11T06:58:58.488Z,73.30
2018-01-11T06:59:59.734Z,73.30
2018-01-11T07:01:00.837Z,73.20
2018-01-11T07:02:01.988Z,72.90
2018-01-11T07:03:03.123Z,72.80
2018-01-11T07:04:04.311Z,72.60
2018-01-11T07:05:08.627Z,72.50
2018-01-11T07:06:09.725Z,72.40
2018-01-11T07:07:10.814Z,72.30
2018-01-11T07:08:11.903Z,72.40
2018-01-11T07:09:13.112Z,72.60
2018-01-11T07:10:14.232Z,72.70
2018-01-11T07:11:15.378Z,72.80
2018-01-11T07:12:16.495Z,72.90
2018-01-11T07:13:17.619Z,73.00
2018-01-11T07:14:18.722Z,73.00
2018-01-11T07:15:19.838Z,72.90
2018-01-11T07:16:21.072Z,73.10
2018-01-11T07:17:22.176Z,73.10
2018-01-11T07:18:23.299Z,73.20
2018-01-11T07:19:24.403Z,73.10
2018-01-11T07:20:25.490Z,73.10
2018-01-11T07:21:26.583Z,73.10
2018-01-11T07:22:27.683Z,73.10
2018-01-11T07:23:28.759Z,73.20
2018-01-11T07:24:29.921Z,73.20
2018-01-11T07:25:31.836Z,73.10
2018-01-11T07:26:32.935Z,73.00
2018-01-11T07:27:34.023Z,73.00
2018-01-11T07:28:35.137Z,72.90
2018-01-11T07:29:36.524Z,72.90
2018-01-11T07:30:37.616Z,72.70
2018-01-11T07:31:38.724Z,72.70
2018-01-11T07:32:40.591Z,72.50
2018-01-11T07:33:41.687Z,72.50
2018-01-11T07:34:43.020Z,72.40
2018-01-11T07:35:44.114Z,72.40
2018-01-11T07:36:46.360Z,72.40
2018-01-11T07:37:47.496Z,72.40
2018-01-11T07:38:48.593Z,72.40
2018-01-11T07:39:49.713Z,72.40
2018-01-11T07:40:50.827Z,72.40
2018-01-11T07:41:52.789Z,72.30
2018-01-11T07:42:55.342Z,72.20
2018-01-11T07:43:57.700Z,72.10
2018-01-11T07:44:59.556Z,72.10
2018-01-11T07:46:00.654Z,72.00
2018-01-11T07:47:01.779Z,72.10
2018-01-11T07:48:02.888Z,72.20
2018-01-11T07:49:03.995Z,72.30
2018-01-11T07:50:05.123Z,72.50
2018-01-11T07:51:06.241Z,72.50
2018-01-11T07:52:08.264Z,72.40
2018-01-11T07:53:09.380Z,72.30
2018-01-11T07:54:10.474Z,72.30
2018-01-11T07:55:12.380Z,72.20
2018-01-11T07:56:13.536Z,71.90
2018-01-11T07:57:14.631Z,72.00
2018-01-11T07:58:16.656Z,71.90
2018-01-11T07:59:18.496Z,71.90
2018-01-11T08:00:19.611Z,71.90
2018-01-11T08:01:20.723Z,71.80
2018-01-11T08:02:21.811Z,71.80
2018-01-11T08:03:22.907Z,71.80
2018-01-11T08:04:24.041Z,71.90
2018-01-11T08:05:25.095Z,71.80
2018-01-11T08:06:26.942Z,71.80
2018-01-11T08:07:28.123Z,71.70
2018-01-11T08:08:29.219Z,71.90
2018-01-11T08:09:30.303Z,71.90
2018-01-11T08:10:31.378Z,71.70
2018-01-11T08:11:33.240Z,71.90
2018-01-11T08:12:34.334Z,71.90
2018-01-11T08:13:35.447Z,71.90
2018-01-11T08:14:36.581Z,72.00
2018-01-11T08:15:37.684Z,72.10
2018-01-11T08:16:38.795Z,72.00
2018-01-11T08:17:39.933Z,72.00
2018-01-11T08:18:41.047Z,72.00
2018-01-11T08:19:42.902Z,72.30
2018-01-11T08:20:44.752Z,72.30
2018-01-11T08:21:46.604Z,72.10
2018-01-11T08:22:48.427Z,72.10
2018-01-11T08:23:49.520Z,72.10
2018-01-11T08:24:50.628Z,72.90
2018-01-11T08:25:52.451Z,73.00
2018-01-11T08:26:53.559Z,72.20
2018-01-11T08:27:54.653Z,72.30
2018-01-11T08:28:55.755Z,72.30
2018-01-11T08:29:56.847Z,72.50
2018-01-11T08:30:57.950Z,72.40
2018-01-11T08:31:59.043Z,72.50
2018-01-11T08:33:00.155Z,72.30
2018-01-11T08:34:01.276Z,72.20
2018-01-11T08:35:02.403Z,72.30
2018-01-11T08:36:03.499Z,72.20
2018-01-11T08:37:04.634Z,72.00
2018-01-11T08:38:06.471Z,72.00
2018-01-11T08:39:08.304Z,71.90
2018-01-11T08:40:09.395Z,71.90
2018-01-11T08:41:11.240Z,71.80
2018-01-11T08:42:12.330Z,71.80
2018-01-11T08:43:13.448Z,71.90
2018-01-11T08:44:14.551Z,71.80
2018-01-11T08:45:16.578Z,71.90
2018-01-11T08:46:17.659Z,71.70
2018-01-11T08:47:18.768Z,71.60
2018-01-11T08:48:19.875Z,71.70
2018-01-11T08:49:21.850Z,71.80
2018-01-11T08:50:22.955Z,71.80
2018-01-11T08:51:24.784Z,71.80
2018-01-11T08:52:26.635Z,71.70
2018-01-11T08:53:28.518Z,71.70
2018-01-11T08:54:29.627Z,72.50
2018-01-11T08:55:31.503Z,71.60
2018-01-11T08:56:32.591Z,71.60
2018-01-11T08:57:33.679Z,71.60
2018-01-11T08:58:34.763Z,72.20
2018-01-11T08:59:35.823Z,71.50
2018-01-11T09:00:36.947Z,71.50
2018-01-11T09:01:38.056Z,71.50
2018-01-11T09:02:39.131Z,71.50
2018-01-11T09:03:40.183Z,71.40
2018-01-11T09:04:41.258Z,71.40
2018-01-11T09:05:42.327Z,71.30
2018-01-11T09:06:43.419Z,71.30
2018-01-11T09:07:44.499Z,71.30
2018-01-11T09:08:45.596Z,71.60
2018-01-11T09:09:46.670Z,71.60
2018-01-11T09:10:47.839Z,71.90
2018-01-11T09:11:48.910Z,72.20
2018-01-11T09:12:49.975Z,72.50
2018-01-11T09:13:51.776Z,72.40
2018-01-11T09:14:52.860Z,72.50
2018-01-11T09:15:53.934Z,72.00
2018-01-11T09:16:54.984Z,72.10
2018-01-11T09:17:56.833Z,72.20
2018-01-11T09:18:57.971Z,72.20
2018-01-11T09:19:59.059Z,72.40
2018-01-11T09:21:00.131Z,72.20
2018-01-11T09:22:01.988Z,71.90
2018-01-11T09:23:03.115Z,71.90
2018-01-11T09:24:04.617Z,71.90
2018-01-11T09:25:06.025Z,72.10
2018-01-11T09:26:07.332Z,71.80
2018-01-11T09:27:08.400Z,72.40
2018-01-11T09:28:09.723Z,71.40
2018-01-11T09:29:11.035Z,71.50
2018-01-11T09:30:12.872Z,71.00
2018-01-11T09:31:13.935Z,71.00
2018-01-11T09:32:15.007Z,70.60
2018-01-11T09:33:16.084Z,70.40
2018-01-11T09:34:17.157Z,70.40
2018-01-11T09:35:18.252Z,71.20
2018-01-11T09:36:19.354Z,70.40
2018-01-11T09:37:20.435Z,70.40
2018-01-11T09:38:22.272Z,70.50
2018-01-11T09:39:24.084Z,70.50
2018-01-11T09:40:25.159Z,70.50
2018-01-11T09:41:26.240Z,70.50
2018-01-11T09:42:27.322Z,71.30
2018-01-11T09:43:28.401Z,70.50
2018-01-11T09:44:29.468Z,70.60
2018-01-11T09:45:30.576Z,70.60
2018-01-11T09:46:31.671Z,70.60
2018-01-11T09:47:32.755Z,70.00
2018-01-11T09:48:33.817Z,70.30
2018-01-11T09:49:34.893Z,70.40
2018-01-11T09:50:35.961Z,69.80
2018-01-11T09:51:37.101Z,69.90
2018-01-11T09:52:38.191Z,69.90
2018-01-11T09:53:39.283Z,69.90
2018-01-11T09:54:40.372Z,69.70
2018-01-11T09:55:41.439Z,69.60
2018-01-11T09:56:43.256Z,70.10
2018-01-11T09:57:44.311Z,70.10
2018-01-11T09:58:45.445Z,70.30
2018-01-11T09:59:47.277Z,70.90
2018-01-11T10:00:48.368Z,70.30
2018-01-11T10:01:49.467Z,69.90
2018-01-11T10:02:51.068Z,70.00
2018-01-11T10:03:52.147Z,70.10
2018-01-11T10:04:53.270Z,70.60
2018-01-11T10:05:55.339Z,70.60
2018-01-11T10:06:57.215Z,70.70
2018-01-11T10:07:59.452Z,70.60
2018-01-11T10:09:00.524Z,70.60
2018-01-11T10:10:01.598Z,70.40
2018-01-11T10:11:02.691Z,70.60
2018-01-11T10:12:03.761Z,70.60
2018-01-11T10:13:04.855Z,70.60
2018-01-11T10:14:05.940Z,70.60
2018-01-11T10:15:08.860Z,70.70
2018-01-11T10:16:09.956Z,70.70
2018-01-11T10:17:11.059Z,70.60
2018-01-11T10:18:12.133Z,70.50
2018-01-11T10:19:13.224Z,70.50
2018-01-11T10:20:14.305Z,70.40
2018-01-11T10:21:15.392Z,70.80
2018-01-11T10:22:16.467Z,70.80
2018-01-11T10:23:17.542Z,70.10
2018-01-11T10:24:18.634Z,70.00
2018-01-11T10:25:19.756Z,69.80
2018-01-11T10:26:20.836Z,69.80
2018-01-11T10:27:21.915Z,69.50
2018-01-11T10:28:22.997Z,69.70
2018-01-11T10:29:24.091Z,70.20
2018-01-11T10:30:25.146Z,69.90
2018-01-11T10:31:26.246Z,69.70
2018-01-11T10:32:27.325Z,69.70
2018-01-11T10:33:28.414Z,69.60
2018-01-11T10:34:29.496Z,69.50
2018-01-11T10:35:30.567Z,69.50
2018-01-11T10:36:32.436Z,69.20
2018-01-11T10:37:33.447Z,69.20
2018-01-11T10:38:35.320Z,69.20
2018-01-11T10:39:36.403Z,69.90
2018-01-11T10:40:37.499Z,69.20
2018-01-11T10:41:38.573Z,69.30
2018-01-11T10:42:39.647Z,68.90
2018-01-11T10:43:40.732Z,68.60
2018-01-11T10:44:41.807Z,68.60
2018-01-11T10:45:42.867Z,68.40
2018-01-11T10:46:43.951Z,68.40
2018-01-11T10:47:45.015Z,68.70
2018-01-11T10:48:46.097Z,68.90
2018-01-11T10:49:47.159Z,68.90
2018-01-11T10:50:48.231Z,69.00
2018-01-11T10:51:49.292Z,69.10
2018-01-11T10:52:50.355Z,69.20
2018-01-11T10:53:51.428Z,68.80
2018-01-11T10:54:52.549Z,68.70
2018-01-11T10:55:53.635Z,68.70
2018-01-11T10:56:54.714Z,68.40
2018-01-11T10:57:55.809Z,68.80
2018-01-11T10:58:56.887Z,68.70
2018-01-11T10:59:57.991Z,68.50
2018-01-11T11:01:05.275Z,68.30
2018-01-11T11:02:12.507Z,68.10
2018-01-11T11:03:14.310Z,67.70
2018-01-11T11:04:15.388Z,67.50
2018-01-11T11:05:16.459Z,67.50
2018-01-11T11:06:17.523Z,67.20
2018-01-11T11:07:18.613Z,67.10
2018-01-11T11:08:19.707Z,67.10
2018-01-11T11:09:20.771Z,67.20
2018-01-11T11:10:22.579Z,67.10
2018-01-11T11:11:23.680Z,67.10
2018-01-11T11:12:24.747Z,66.70
2018-01-11T11:13:25.823Z,66.80
2018-01-11T11:14:26.883Z,66.70
2018-01-11T11:15:27.979Z,66.50
2018-01-11T11:16:29.792Z,66.30
2018-01-11T11:17:30.904Z,66.40
2018-01-11T11:18:31.995Z,66.60
2018-01-11T11:19:33.116Z,66.50
2018-01-11T11:20:34.207Z,66.30
2018-01-11T11:21:35.294Z,66.40
2018-01-11T11:22:37.104Z,66.40
2018-01-11T11:23:38.187Z,66.40
2018-01-11T11:24:39.298Z,66.50
2018-01-11T11:25:41.136Z,65.70
2018-01-11T11:26:42.225Z,66.70
2018-01-11T11:27:43.342Z,65.70
2018-01-11T11:28:44.511Z,65.50
2018-01-11T11:29:45.715Z,65.40
2018-01-11T11:30:46.932Z,65.40
2018-01-11T11:31:48.214Z,65.40
2018-01-11T11:32:49.338Z,65.60
2018-01-11T11:33:50.436Z,65.60
2018-01-11T11:34:51.567Z,65.60
2018-01-11T11:35:53.368Z,65.70
2018-01-11T11:36:54.456Z,65.80
2018-01-11T11:37:57.163Z,65.80
2018-01-11T11:38:58.255Z,65.20
2018-01-11T11:39:59.351Z,65.20
2018-01-11T11:41:00.422Z,65.20
2018-01-11T11:42:02.259Z,64.10
2018-01-11T11:43:04.089Z,64.50
2018-01-11T11:44:05.153Z,64.30
2018-01-11T11:45:06.283Z,64.60
2018-01-11T11:46:07.364Z,64.80
2018-01-11T11:47:08.484Z,65.00
2018-01-11T11:48:09.564Z,64.90
2018-01-11T11:49:11.422Z,64.80
2018-01-11T11:50:13.258Z,64.60
2018-01-11T11:51:14.355Z,64.60
2018-01-11T11:52:15.469Z,64.50
2018-01-11T11:53:16.575Z,64.50
2018-01-11T11:54:17.689Z,64.90
2018-01-11T11:55:19.636Z,65.60
2018-01-11T11:56:21.536Z,64.50
2018-01-11T11:57:22.679Z,65.30
2018-01-11T11:58:23.759Z,65.20
2018-01-11T11:59:24.915Z,63.80
2018-01-11T12:00:26.068Z,64.10
2018-01-11T12:01:27.157Z,63.80
2018-01-11T12:02:28.252Z,63.70
2018-01-11T12:03:29.368Z,64.60
2018-01-11T12:04:31.204Z,63.90
2018-01-11T12:05:32.307Z,63.90
2018-01-11T12:06:33.409Z,63.70
2018-01-11T12:07:34.502Z,63.30
2018-01-11T12:08:35.571Z,62.90
2018-01-11T12:09:36.657Z,63.00
2018-01-11T12:10:37.771Z,62.90
2018-01-11T12:11:38.890Z,62.90
2018-01-11T12:12:39.980Z,62.90
2018-01-11T12:13:41.067Z,62.40
2018-01-11T12:14:43.807Z,62.60
2018-01-11T12:15:44.928Z,62.50
2018-01-11T12:16:46.039Z,62.50
2018-01-11T12:17:47.168Z,62.50
2018-01-11T12:18:49.006Z,62.60
2018-01-11T12:19:50.103Z,62.60
2018-01-11T12:20:51.199Z,62.60
2018-01-11T12:21:52.288Z,62.60
2018-01-11T12:22:54.111Z,62.70
2018-01-11T12:23:55.987Z,62.70
2018-01-11T12:24:57.073Z,62.60
2018-01-11T12:25:58.187Z,62.70
2018-01-11T12:26:59.295Z,62.70
2018-01-11T12:28:01.149Z,62.60
2018-01-11T12:29:02.301Z,62.50
2018-01-11T12:30:03.408Z,62.80
2018-01-11T12:31:04.492Z,62.60
2018-01-11T12:32:05.567Z,62.80
2018-01-11T12:33:07.427Z,62.50
2018-01-11T12:34:08.508Z,62.50
2018-01-11T12:35:09.592Z,62.10
2018-01-11T12:36:10.719Z,62.00
2018-01-11T12:37:11.860Z,62.10
2018-01-11T12:38:12.927Z,62.60
2018-01-11T12:39:14.013Z,62.10
2018-01-11T12:40:15.108Z,62.00
2018-01-11T12:41:16.204Z,62.20
2018-01-11T12:42:17.287Z,62.40
2018-01-11T12:43:18.395Z,62.50
2018-01-11T12:44:19.475Z,62.90
2018-01-11T12:45:20.567Z,62.90
2018-01-11T12:46:21.688Z,63.00
2018-01-11T12:47:22.783Z,62.90
2018-01-11T12:48:23.929Z,63.00
2018-01-11T12:49:25.055Z,63.00
2018-01-11T12:50:26.860Z,63.10
2018-01-11T12:51:27.959Z,63.00
2018-01-11T12:52:29.036Z,63.00
2018-01-11T12:53:30.162Z,63.00
2018-01-11T12:54:31.255Z,62.90
2018-01-11T12:55:32.334Z,63.10
2018-01-11T12:56:33.460Z,63.10
2018-01-11T12:57:34.758Z,63.10
2018-01-11T12:58:35.835Z,62.60
2018-01-11T12:59:36.935Z,62.80
2018-01-11T13:00:38.746Z,63.20
2018-01-11T13:01:40.575Z,63.20
2018-01-11T13:02:41.647Z,63.20
2018-01-11T13:03:42.754Z,63.20
2018-01-11T13:04:44.617Z,63.30
2018-01-11T13:05:46.432Z,63.00
2018-01-11T13:06:47.528Z,63.00
2018-01-11T13:07:48.667Z,63.20
2018-01-11T13:08:50.460Z,63.30
2018-01-11T13:09:51.552Z,63.20